首页
METAR-TAF:

METAR-TAF

机场 :

Muscle Shoals, 阿拉巴马州, 美国

纬度: 34-44-38N, 经度: 087-35-58W, 海拔: 167米

当前天气观测

该预报发布于25分钟前的11:53 UTC
风速3节,风向西南
温度 23°C
湿度 94%
气压 1015 hPa
能見度: 16.1公里
阴天层高于500英尺

METAR: KMSL 091153Z AUTO 23003KT 10SM OVC005 23/22 A2996 RMK AO2 SLP140 70096 T02330222 10250 20228 53015

时间: 07:18 (12:18 UTC)

预报

该预报发布于38分钟前的11:40 UTC
预报有效从09日的 12点(UTC)到 10日的 12点(UTC)
风速节,风向
能見度: 10公里
多云层高于1500英尺
短暂存在
从 09日的 12点(UTC)到 09日的 15点(UTC)
多云层高于800英尺
阴天层高于1500英尺
从 09日的 1700点(UTC)
风速3节,风向多变
能見度: 10公里
少量云层高于3500英尺, 积雨云.
散云层高于7000英尺
附近有雷暴
从 09日的 2100点(UTC)
风速3节,风向多变
能見度: 10公里
少量云层高于4000英尺
散云层高于12000英尺
几率 30%
从 09日的 21点(UTC)到 09日的 24点(UTC)
能見度: 6.4公里
多云层高于4000英尺, 积雨云.
雷暴, 雨
从 10日的 0900点(UTC)
风速节,风向
能見度: 9.7公里
少量云层高于4000英尺
散云层高于20000英尺
轻雾
几率 30%
从 10日的 09点(UTC)到 10日的 12点(UTC)
能見度: 6.4公里
多云层高于4000英尺
小阵雨, 轻雾

TAF: KMSL 091140Z 0912/1012 00000KT P6SM BKN015 TEMPO 0912/0915 BKN008 OVC015 FM091700 VRB03KT P6SM VCTS FEW035CB SCT070 FM092100 VRB03KT P6SM FEW040 SCT120 PROB30 0921/0924 4SM TSRA BKN040CB FM100900 00000KT 6SM BR FEW040 SCT200 PROB30 1009/1012 4SM -SHRA BR BKN040

超过4000个机场的气象观测和天气预报(METAR&TAF报告)。

可查询的气象台以黄色和红色小点在地图上表示。

将鼠标移到小点上方,可查看气象台名称。

然后点击查看天气观测和预报。

如需切换地图:点击带黑十字的绿色按钮放大地图;点击带横线的绿色按钮缩小地图;或者点击绿色箭头查看邻近地区的地图。


METAR-TAF: